Time;durP1;ratioP1;P1;durP2;ratioP2;P2;SDS_P1;SDS_P2;PMS_P1;PMS_P2;Temp;Humidity;BMP_temperature;BMP_pressure;BME280_temperature;BME280_humidity;BME280_pressure;Samples;Min_cycle;Max_cycle;Signal;HPM_P1;HPM_P2
2022/05/24 00:00:35;;;;;;;13.05;8.20;;;16.30;99.90;;;;;;5094089;28;20036;-53
2022/05/24 00:03:02;;;;;;;13.27;8.60;;;16.20;99.90;;;;;;5094114;28;20048;-53
2022/05/24 00:05:30;;;;;;;15.57;9.48;;;16.20;99.90;;;;;;5094449;28;20035;-53
2022/05/24 00:07:56;;;;;;;15.43;10.02;;;16.20;99.90;;;;;;5094189;28;20640;-53
2022/05/24 00:10:26;;;;;;;27.98;10.63;;;16.20;99.90;;;;;;5094408;28;20233;-53
2022/05/24 00:12:52;;;;;;;16.45;9.85;;;16.10;99.90;;;;;;5093864;28;20036;-53
2022/05/24 00:15:19;;;;;;;12.70;8.73;;;16.10;99.90;;;;;;5094141;28;20035;-53
2022/05/24 00:17:49;;;;;;;15.80;8.98;;;16.10;99.90;;;;;;5094884;28;20028;-53
2022/05/24 00:20:15;;;;;;;14.55;10.07;;;16.00;99.90;;;;;;5098261;28;20101;-53
2022/05/24 00:22:41;;;;;;;14.13;8.27;;;16.10;99.90;;;;;;5097824;28;20382;-53
2022/05/24 00:25:08;;;;;;;11.52;7.75;;;15.90;99.90;;;;;;5097900;28;20490;-53
2022/05/24 00:27:34;;;;;;;12.07;8.43;;;15.90;99.90;;;;;;5097797;28;20093;-53
2022/05/24 00:30:00;;;;;;;11.80;8.25;;;15.90;99.90;;;;;;5097672;28;20024;-53
2022/05/24 00:32:26;;;;;;;15.43;8.82;;;16.00;99.90;;;;;;5097749;28;20046;-54
2022/05/24 00:34:52;;;;;;;15.35;9.10;;;16.00;99.90;;;;;;5097733;28;20034;-53
2022/05/24 00:37:22;;;;;;;14.50;9.32;;;15.90;99.90;;;;;;5097467;28;20036;-54
2022/05/24 00:39:48;;;;;;;15.80;9.60;;;15.90;99.90;;;;;;5097588;28;20024;-53
2022/05/24 00:42:19;;;;;;;22.10;11.20;;;15.90;99.90;;;;;;5097209;28;20028;-53
2022/05/24 00:44:58;;;;;;;;;;;15.90;99.90;;;;;;5097998;28;20024;-53
2022/05/24 00:47:51;;;;;;;17.00;8.90;;;15.80;99.90;;;;;;5097504;28;19908;-53
2022/05/24 00:50:25;;;;;;;14.02;8.95;;;15.70;99.90;;;;;;5097090;28;20484;-53
2022/05/24 00:52:56;;;;;;;16.15;10.25;;;15.60;99.90;;;;;;5097313;28;20028;-53
2022/05/24 00:55:24;;;;;;;14.40;9.60;;;15.60;99.90;;;;;;5097632;28;20035;-53
2022/05/24 00:58:19;;;;;;;16.85;9.30;;;15.60;99.90;;;;;;5097173;28;20492;-53
2022/05/24 01:00:45;;;;;;;13.07;8.80;;;15.70;99.90;;;;;;5097185;28;20067;-53
2022/05/24 01:03:15;;;;;;;13.90;8.23;;;15.60;99.90;;;;;;5097181;28;20062;-53
2022/05/24 01:05:42;;;;;;;13.77;8.98;;;15.60;99.90;;;;;;5096865;28;20083;-53
2022/05/24 01:08:10;;;;;;;16.88;9.40;;;15.60;99.90;;;;;;5097142;28;20020;-54
2022/05/24 01:10:48;;;;;;;13.90;8.75;;;15.60;99.90;;;;;;5097049;28;20036;-53
2022/05/24 01:13:20;;;;;;;12.73;8.70;;;15.60;99.90;;;;;;5097077;28;20053;-53
2022/05/24 01:15:47;;;;;;;13.60;8.95;;;15.60;99.90;;;;;;5096982;28;20036;-53
2022/05/24 01:18:14;;;;;;;12.93;9.05;;;15.60;99.90;;;;;;5096590;28;20027;-53
2022/05/24 01:20:44;;;;;;;16.13;9.27;;;15.50;99.90;;;;;;5096880;28;20039;-53
2022/05/24 01:23:28;;;;;;;17.00;8.60;;;15.60;99.90;;;;;;5096949;28;20028;-53
2022/05/24 01:26:09;;;;;;;14.13;10.05;;;15.60;99.90;;;;;;5096431;28;20021;-53
2022/05/24 01:28:56;;;;;;;13.02;8.43;;;15.50;99.90;;;;;;5096203;28;20024;-54
2022/05/24 01:31:24;;;;;;;12.95;8.77;;;15.60;99.90;;;;;;5096276;28;20070;-53
2022/05/24 01:36:40;;;;;;;18.75;9.85;;;15.60;99.90;;;;;;5096460;28;20661;-53
2022/05/24 01:39:09;;;;;;;20.38;10.50;;;15.60;99.90;;;;;;5096462;28;20090;-53
2022/05/24 01:41:38;;;;;;;16.02;10.40;;;15.60;99.90;;;;;;5096244;28;20024;-53
2022/05/24 01:44:05;;;;;;;13.15;9.45;;;15.60;99.90;;;;;;5096695;28;20035;-53
2022/05/24 01:46:40;;;;;;;19.02;10.07;;;15.60;99.90;;;;;;5096551;28;20036;-53
2022/05/24 01:49:38;;;;;;;12.57;9.75;;;15.60;99.90;;;;;;5096632;28;20038;-53
2022/05/24 01:52:14;;;;;;;14.15;8.90;;;15.60;99.90;;;;;;5093294;28;20121;-53
2022/05/24 01:54:45;;;;;;;14.35;9.15;;;15.60;99.90;;;;;;5096175;28;20031;-53
2022/05/24 01:57:20;;;;;;;14.98;9.93;;;15.60;99.90;;;;;;5096081;28;20481;-53
2022/05/24 01:59:50;;;;;;;11.95;9.88;;;15.50;99.90;;;;;;5096084;28;20093;-53
2022/05/24 02:02:16;;;;;;;15.52;9.63;;;15.60;99.90;;;;;;5077889;28;20044;-54
2022/05/24 02:04:43;;;;;;;13.40;10.00;;;15.60;99.90;;;;;;5095851;28;20024;-53
2022/05/24 02:07:16;;;;;;;15.73;10.15;;;15.60;99.90;;;;;;5095990;28;20024;-53
2022/05/24 02:09:45;;;;;;;15.32;9.70;;;15.60;99.90;;;;;;5095797;28;20063;-53
2022/05/24 02:12:41;;;;;;;17.95;9.70;;;15.60;99.90;;;;;;5096134;28;20028;-54
2022/05/24 02:15:09;;;;;;;13.80;9.25;;;15.60;99.90;;;;;;5095709;28;20105;-53
2022/05/24 02:17:47;;;;;;;14.20;9.02;;;15.60;99.90;;;;;;5095655;28;20034;-53
2022/05/24 02:20:19;;;;;;;21.83;9.98;;;15.60;99.90;;;;;;5095607;28;20197;-53
2022/05/24 02:22:48;;;;;;;16.98;9.70;;;15.60;99.90;;;;;;5095601;28;20582;-53
2022/05/24 02:25:29;;;;;;;14.48;9.23;;;15.50;99.90;;;;;;5095636;28;20016;-53
2022/05/24 02:27:55;;;;;;;15.05;10.68;;;15.50;99.90;;;;;;5095759;28;20141;-53
2022/05/24 02:30:23;;;;;;;14.63;10.13;;;15.50;99.90;;;;;;5095551;28;20082;-53
2022/05/24 02:32:50;;;;;;;14.57;10.02;;;15.50;99.90;;;;;;5095545;28;20504;-53
2022/05/24 02:35:17;;;;;;;12.40;9.50;;;15.40;99.90;;;;;;5095560;28;20036;-53
2022/05/24 02:37:43;;;;;;;13.45;9.73;;;15.30;99.90;;;;;;5095057;28;20482;-53
2022/05/24 02:42:55;;;;;;;13.27;10.38;;;15.30;99.90;;;;;;5094969;28;20431;-53
2022/05/24 02:45:22;;;;;;;18.13;9.13;;;15.30;99.90;;;;;;5095859;28;20031;-53
2022/05/24 02:47:48;;;;;;;11.70;9.10;;;15.30;99.90;;;;;;5095587;28;20378;-53
2022/05/24 02:50:15;;;;;;;15.85;9.82;;;15.20;99.90;;;;;;5095042;28;20106;-53
2022/05/24 02:52:42;;;;;;;14.27;8.77;;;15.20;99.90;;;;;;5094875;28;20024;-53
2022/05/24 02:55:10;;;;;;;12.55;9.48;;;15.20;99.90;;;;;;5095229;28;20036;-53
2022/05/24 02:57:38;;;;;;;12.88;9.35;;;15.20;99.90;;;;;;5095155;28;20032;-53
2022/05/24 03:00:16;;;;;;;13.20;9.77;;;15.10;99.90;;;;;;5095124;28;20083;-53
2022/05/24 03:02:42;;;;;;;12.80;9.57;;;15.10;99.90;;;;;;5094974;28;20055;-53
2022/05/24 03:05:10;;;;;;;14.80;10.15;;;15.00;99.90;;;;;;5094664;28;20055;-53
2022/05/24 03:10:25;;;;;;;21.98;11.43;;;15.00;99.90;;;;;;5094914;28;20028;-53
2022/05/24 03:15:40;;;;;;;15.43;9.52;;;15.10;99.90;;;;;;5095064;28;20112;-53
2022/05/24 03:18:07;;;;;;;15.20;10.00;;;15.10;99.90;;;;;;5094778;28;20043;-53
2022/05/24 03:20:33;;;;;;;17.02;10.45;;;15.00;99.90;;;;;;5094665;28;20032;-53
2022/05/24 03:23:00;;;;;;;16.02;10.23;;;15.00;99.90;;;;;;5094930;28;20031;-53
2022/05/24 03:25:26;;;;;;;18.65;10.90;;;15.00;99.90;;;;;;5094697;28;20036;-53
2022/05/24 03:27:52;;;;;;;16.98;10.90;;;15.00;99.90;;;;;;5094619;28;20028;-53
2022/05/24 03:30:18;;;;;;;17.05;10.43;;;15.00;99.90;;;;;;5094305;28;20405;-53
2022/05/24 03:32:44;;;;;;;19.45;10.82;;;15.00;99.90;;;;;;5094747;28;20025;-53
2022/05/24 03:35:14;;;;;;;19.40;10.07;;;15.00;99.90;;;;;;5094677;28;20105;-54
2022/05/24 03:37:41;;;;;;;18.10;10.98;;;15.00;99.90;;;;;;5094477;28;20071;-53
2022/05/24 03:40:08;;;;;;;15.40;10.98;;;15.00;99.90;;;;;;5094385;28;20094;-53
2022/05/24 03:42:35;;;;;;;19.00;11.50;;;15.00;99.90;;;;;;5094475;28;20245;-53
2022/05/24 03:45:01;;;;;;;14.93;10.30;;;15.00;99.90;;;;;;5094751;28;20020;-53
2022/05/24 03:47:27;;;;;;;16.85;11.30;;;15.10;99.90;;;;;;5094235;28;20020;-53
2022/05/24 03:49:53;;;;;;;13.63;11.18;;;15.10;99.90;;;;;;5094686;28;20480;-53
2022/05/24 03:52:19;;;;;;;17.45;11.15;;;15.10;99.90;;;;;;5094610;28;20377;-53
2022/05/24 03:54:45;;;;;;;16.02;10.88;;;15.10;99.90;;;;;;5098287;28;20036;-53
2022/05/24 03:59:56;;;;;;;20.15;12.02;;;15.10;99.90;;;;;;5098251;28;20516;-53
2022/05/24 04:02:22;;;;;;;33.90;12.68;;;15.20;99.90;;;;;;5098116;28;20059;-53
2022/05/24 04:04:48;;;;;;;24.45;11.73;;;15.20;99.90;;;;;;5098113;28;20032;-53
2022/05/24 04:07:14;;;;;;;23.52;11.82;;;15.30;99.90;;;;;;5098478;28;20024;-53
2022/05/24 04:09:40;;;;;;;27.98;11.40;;;15.30;99.90;;;;;;5097985;28;20035;-53
2022/05/24 04:12:08;;;;;;;20.30;11.13;;;15.40;99.90;;;;;;5098215;28;20500;-53
2022/05/24 04:14:35;;;;;;;23.23;10.63;;;15.50;99.90;;;;;;5098087;28;20053;-53
2022/05/24 04:17:01;;;;;;;26.17;10.35;;;15.40;99.90;;;;;;5097722;28;20058;-53
2022/05/24 04:19:27;;;;;;;25.48;11.85;;;15.50;99.90;;;;;;5097999;28;20032;-53
2022/05/24 04:21:53;;;;;;;21.45;10.60;;;15.60;99.90;;;;;;5097839;28;20103;-53
2022/05/24 04:24:19;;;;;;;23.10;11.75;;;15.60;99.90;;;;;;5097624;28;20028;-53
2022/05/24 04:26:46;;;;;;;35.95;13.05;;;15.70;99.90;;;;;;5097968;28;20173;-53
2022/05/24 04:29:12;;;;;;;20.55;11.35;;;15.80;99.90;;;;;;5097445;28;20554;-53
2022/05/24 04:31:39;;;;;;;22.33;11.77;;;15.90;99.90;;;;;;5097776;28;20052;-53
2022/05/24 04:34:05;;;;;;;26.55;11.82;;;16.10;99.90;;;;;;5097742;28;20024;-53
2022/05/24 04:36:31;;;;;;;21.17;11.90;;;16.10;99.90;;;;;;5097421;28;20048;-53
2022/05/24 04:38:58;;;;;;;29.90;13.93;;;16.20;99.90;;;;;;5097503;28;20469;-53
2022/05/24 04:44:09;;;;;;;31.98;15.50;;;16.30;99.90;;;;;;5097355;28;20270;-53
2022/05/24 04:49:22;;;;;;;28.60;13.65;;;16.60;99.90;;;;;;5097499;28;20102;-53
2022/05/24 04:51:48;;;;;;;26.58;16.23;;;16.70;99.90;;;;;;5097696;28;20024;-53
2022/05/24 04:54:14;;;;;;;32.58;15.05;;;16.80;99.90;;;;;;5097037;28;20388;-53
2022/05/24 04:56:40;;;;;;;34.17;16.42;;;16.90;99.90;;;;;;5097301;28;20020;-53
2022/05/24 04:59:06;;;;;;;36.05;17.40;;;17.00;99.90;;;;;;5097088;28;20036;-53
2022/05/24 05:01:32;;;;;;;29.17;15.48;;;17.00;99.90;;;;;;5096613;28;20024;-53
2022/05/24 05:03:57;;;;;;;28.40;16.38;;;17.10;99.90;;;;;;5096706;28;20058;-53
2022/05/24 05:06:23;;;;;;;36.03;17.17;;;17.20;99.90;;;;;;5096781;28;20073;-54
2022/05/24 05:08:49;;;;;;;31.80;17.48;;;17.40;99.90;;;;;;5096974;28;20051;-53
2022/05/24 05:11:15;;;;;;;29.08;15.90;;;17.50;99.90;;;;;;5091811;28;20030;-53
2022/05/24 05:13:41;;;;;;;29.55;15.05;;;17.60;99.90;;;;;;5062774;28;20037;-54
2022/05/24 05:16:07;;;;;;;31.50;15.50;;;17.80;99.90;;;;;;5069446;28;20648;-54
2022/05/24 05:18:33;;;;;;;37.60;16.42;;;17.90;99.90;;;;;;5065096;28;20036;-54
2022/05/24 05:21:00;;;;;;;32.47;16.95;;;18.10;99.90;;;;;;5069451;28;20032;-54
2022/05/24 05:23:26;;;;;;;32.25;16.30;;;18.20;99.90;;;;;;5063816;28;20487;-54
2022/05/24 05:25:52;;;;;;;38.38;19.38;;;18.30;99.90;;;;;;5070806;28;20025;-53
2022/05/24 05:28:19;;;;;;;41.70;19.25;;;18.40;99.90;;;;;;5069029;28;20037;-53
2022/05/24 05:33:33;;;;;;;35.35;19.73;;;18.70;99.90;;;;;;5074679;28;20038;-53
2022/05/24 05:35:59;;;;;;;40.15;19.45;;;18.90;99.90;;;;;;5072397;28;20036;-54
2022/05/24 05:38:25;;;;;;;38.55;17.35;;;19.00;99.90;;;;;;5075994;28;20445;-54
2022/05/24 05:40:53;;;;;;;53.28;19.30;;;19.00;99.90;;;;;;5065142;28;20039;-54
2022/05/24 05:43:21;;;;;;;50.67;20.30;;;19.10;99.90;;;;;;5067979;28;20030;-54
2022/05/24 05:45:54;;;;;;;49.70;18.92;;;19.30;99.90;;;;;;5055655;28;20056;-54
2022/05/24 05:48:24;;;;;;;44.80;18.55;;;19.40;99.90;;;;;;5058498;28;20096;-54
2022/05/24 05:50:50;;;;;;;33.22;16.42;;;19.50;99.90;;;;;;5066812;28;20064;-54
2022/05/24 05:53:17;;;;;;;39.28;16.15;;;19.60;99.90;;;;;;5062126;28;20036;-54
2022/05/24 05:55:43;;;;;;;22.35;14.48;;;19.70;99.90;;;;;;5066530;28;20406;-54
2022/05/24 05:58:10;;;;;;;32.03;15.05;;;19.80;99.90;;;;;;5058556;28;20025;-54
2022/05/24 06:00:39;;;;;;;29.25;15.20;;;19.90;99.90;;;;;;5066434;28;20036;-54
2022/05/24 06:03:06;;;;;;;31.65;14.90;;;19.90;99.90;;;;;;5067418;28;20021;-54
2022/05/24 06:05:32;;;;;;;35.85;16.00;;;20.10;99.90;;;;;;5064886;28;20496;-54
2022/05/24 06:07:59;;;;;;;31.15;13.85;;;20.40;99.90;;;;;;5061232;28;20036;-54
2022/05/24 06:10:26;;;;;;;37.42;15.68;;;20.50;99.90;;;;;;5059575;28;20028;-54
2022/05/24 06:12:52;;;;;;;40.63;15.73;;;20.60;99.90;;;;;;5075263;28;20024;-53
2022/05/24 06:15:21;;;;;;;37.97;16.00;;;20.70;99.90;;;;;;5068007;28;20539;-53
2022/05/24 06:17:50;;;;;;;46.30;16.38;;;20.80;99.90;;;;;;5061366;28;20111;-53
2022/05/24 06:20:23;;;;;;;43.50;15.55;;;20.90;99.90;;;;;;5058795;28;20092;-53
2022/05/24 06:22:52;;;;;;;28.88;14.10;;;21.20;99.90;;;;;;5062560;28;20541;-53
2022/05/24 06:25:27;;;;;;;30.02;12.90;;;21.40;99.90;;;;;;5065312;28;20492;-54
2022/05/24 06:27:55;;;;;;;28.25;13.85;;;21.60;99.90;;;;;;5068226;28;20043;-55
2022/05/24 06:30:22;;;;;;;41.08;14.90;;;21.70;99.90;;;;;;5068092;28;20025;-54
2022/05/24 06:32:50;;;;;;;45.53;15.80;;;21.90;99.90;;;;;;5069916;28;20074;-54
2022/05/24 06:35:17;;;;;;;27.10;12.93;;;21.90;99.90;;;;;;5073873;28;20357;-54
2022/05/24 06:37:43;;;;;;;36.58;13.82;;;22.10;99.90;;;;;;5070787;28;20080;-54
2022/05/24 06:40:13;;;;;;;30.08;12.15;;;22.20;99.90;;;;;;5066907;28;20529;-54
2022/05/24 06:42:42;;;;;;;31.15;13.30;;;22.50;99.90;;;;;;5071850;28;20055;-54
2022/05/24 06:45:09;;;;;;;25.05;11.52;;;22.80;99.90;;;;;;5066753;28;20029;-54
2022/05/24 06:47:36;;;;;;;29.00;11.35;;;23.10;99.90;;;;;;5058715;28;20025;-54
2022/05/24 06:50:03;;;;;;;28.92;11.55;;;23.30;99.90;;;;;;5054485;28;20028;-54
2022/05/24 06:52:29;;;;;;;23.42;9.98;;;23.60;99.90;;;;;;5062911;28;20067;-54
2022/05/24 06:54:55;;;;;;;23.17;10.45;;;23.90;99.90;;;;;;5073811;28;20067;-54
2022/05/24 06:57:21;;;;;;;28.08;11.23;;;24.00;99.90;;;;;;5075428;28;20048;-54
2022/05/24 07:02:33;;;;;;;24.23;10.65;;;24.40;99.90;;;;;;5074657;28;20032;-54
2022/05/24 07:05:00;;;;;;;20.55;10.00;;;24.80;95.20;;;;;;5075135;28;20059;-54
2022/05/24 07:07:27;;;;;;;19.60;9.52;;;25.10;95.00;;;;;;5074691;28;20634;-54
2022/05/24 07:09:53;;;;;;;20.15;10.30;;;25.50;95.90;;;;;;5067987;28;20093;-54
2022/05/24 07:12:21;;;;;;;35.90;12.23;;;25.80;94.10;;;;;;5074513;28;20128;-54
2022/05/24 07:14:47;;;;;;;18.95;9.60;;;26.10;90.50;;;;;;5070452;28;20389;-54
2022/05/24 07:17:14;;;;;;;21.05;9.20;;;26.40;85.70;;;;;;5075606;28;20363;-54
2022/05/24 07:19:40;;;;;;;18.00;9.38;;;26.80;81.40;;;;;;5075391;28;20032;-54
2022/05/24 07:22:07;;;;;;;39.28;11.27;;;26.90;78.20;;;;;;5073915;28;20091;-54
2022/05/24 07:24:34;;;;;;;14.80;8.25;;;27.00;78.70;;;;;;5074390;28;20374;-54
2022/05/24 07:27:01;;;;;;;17.50;8.27;;;27.20;84.70;;;;;;5074293;28;20056;-54
2022/05/24 07:29:27;;;;;;;19.80;9.75;;;27.40;79.60;;;;;;5073340;28;20490;-56
2022/05/24 07:31:53;;;;;;;16.77;8.98;;;27.50;75.10;;;;;;5074068;28;20500;-55
2022/05/24 07:34:19;;;;;;;22.02;9.80;;;27.80;70.30;;;;;;5074321;28;20028;-55
2022/05/24 07:36:45;;;;;;;29.13;10.98;;;28.20;78.30;;;;;;5073276;28;20107;-55
2022/05/24 07:39:12;;;;;;;24.73;10.57;;;28.50;68.50;;;;;;5074177;28;20396;-55
2022/05/24 07:47:09;;;;;;;18.33;6.95;;;29.20;64.00;;;;;;5074121;28;20083;-55
2022/05/24 07:49:36;;;;;;;16.30;7.00;;;29.20;61.50;;;;;;5074262;28;20020;-55
2022/05/24 07:52:04;;;;;;;15.80;7.28;;;29.40;61.90;;;;;;5074060;28;20032;-56
2022/05/24 07:54:31;;;;;;;18.50;7.10;;;29.60;59.90;;;;;;5073985;28;20039;-56
2022/05/24 07:56:57;;;;;;;16.83;6.55;;;30.10;62.50;;;;;;5073793;28;20029;-57
2022/05/24 07:59:24;;;;;;;13.90;6.10;;;30.50;54.90;;;;;;5073982;28;20032;-56
2022/05/24 08:01:50;;;;;;;22.40;7.65;;;31.00;57.20;;;;;;5073063;28;20025;-56
2022/05/24 08:04:16;;;;;;;17.05;5.88;;;31.20;54.50;;;;;;5069721;28;20040;-56
2022/05/24 08:06:42;;;;;;;18.85;7.22;;;31.10;50.40;;;;;;5073901;28;20020;-57
2022/05/24 08:09:08;;;;;;;12.77;6.28;;;30.90;51.60;;;;;;5073795;28;20033;-57
2022/05/24 08:11:34;;;;;;;9.32;5.63;;;31.20;53.60;;;;;;5066711;28;20083;-57
2022/05/24 08:14:02;;;;;;;15.82;6.00;;;31.60;53.80;;;;;;5072250;28;20028;-57
2022/05/24 08:16:30;;;;;;;11.68;5.20;;;31.90;49.30;;;;;;5068880;28;20123;-57
2022/05/24 08:18:58;;;;;;;14.10;6.10;;;31.40;49.10;;;;;;5077563;28;20127;-57
2022/05/24 08:21:27;;;;;;;11.70;6.25;;;31.30;49.00;;;;;;5074151;28;20037;-57
2022/05/24 08:23:53;;;;;;;10.70;5.75;;;31.50;51.00;;;;;;5072725;28;20031;-57
2022/05/24 08:26:20;;;;;;;16.67;6.85;;;31.50;48.20;;;;;;5071568;28;20075;-57
2022/05/24 08:28:50;;;;;;;15.32;6.25;;;31.20;48.10;;;;;;5077623;28;20028;-57
2022/05/24 08:31:16;;;;;;;10.73;6.05;;;31.60;49.50;;;;;;5073481;28;20048;-57
2022/05/24 08:33:43;;;;;;;8.55;4.95;;;31.50;48.30;;;;;;5073346;28;20439;-57
2022/05/24 08:36:10;;;;;;;14.35;6.10;;;31.80;49.00;;;;;;5082880;28;20048;-57
2022/05/24 08:38:37;;;;;;;16.60;6.43;;;32.00;50.80;;;;;;5071764;28;20090;-57
2022/05/24 08:41:09;;;;;;;14.32;6.57;;;31.80;51.40;;;;;;5072995;28;20028;-57
2022/05/24 08:43:44;;;;;;;15.27;6.65;;;32.20;50.00;;;;;;5074730;28;20036;-57
2022/05/24 08:49:11;;;;;;;14.40;6.40;;;32.50;45.60;;;;;;5071252;28;20032;-57
2022/05/24 08:51:43;;;;;;;14.52;5.57;;;32.80;46.90;;;;;;5070580;28;20039;-57
2022/05/24 08:54:19;;;;;;;20.73;6.68;;;32.30;46.20;;;;;;5071908;28;20110;-57
2022/05/24 08:56:53;;;;;;;25.15;7.45;;;32.30;46.10;;;;;;5072069;28;20369;-57
2022/05/24 08:59:34;;;;;;;15.02;6.28;;;32.40;46.60;;;;;;5070955;28;20021;-57
2022/05/24 09:02:00;;;;;;;14.63;6.10;;;32.80;44.10;;;;;;5070244;28;20116;-57
2022/05/24 09:04:29;;;;;;;20.10;6.07;;;33.40;45.00;;;;;;5089775;28;20032;-57
2022/05/24 09:07:02;;;;;;;14.25;5.82;;;33.60;45.00;;;;;;5078875;28;20428;-57
2022/05/24 09:10:02;;;;;;;12.60;5.78;;;33.50;44.10;;;;;;5096067;28;20082;-57
2022/05/24 09:13:04;;;;;;;15.48;6.43;;;33.50;42.10;;;;;;5097151;28;20035;-57
2022/05/24 09:15:49;;;;;;;14.57;7.03;;;32.70;44.70;;;;;;5073913;28;20032;-57
2022/05/24 09:18:38;;;;;;;28.58;7.63;;;33.10;43.40;;;;;;5091613;28;20036;-57
2022/05/24 09:21:05;;;;;;;14.13;5.90;;;33.50;44.20;;;;;;5076119;28;20051;-57
2022/05/24 09:23:45;;;;;;;23.30;8.43;;;34.00;43.50;;;;;;5076376;28;20648;-57
2022/05/24 09:26:12;;;;;;;;;;;33.40;42.80;;;;;;5077042;28;20029;-57
2022/05/24 09:28:57;;;;;;;28.83;9.35;;;33.10;44.10;;;;;;5073906;28;19913;-57
2022/05/24 09:31:37;;;;;;;40.95;11.40;;;32.80;42.40;;;;;;5074864;28;20036;-57
2022/05/24 09:34:24;;;;;;;21.17;6.80;;;33.50;45.40;;;;;;5069514;28;20113;-57
2022/05/24 09:37:22;;;;;;;25.02;7.95;;;33.90;44.00;;;;;;5075450;28;20604;-57
2022/05/24 09:39:59;;;;;;;23.38;8.07;;;34.40;41.00;;;;;;5069968;28;20453;-57
2022/05/24 09:42:31;;;;;;;16.33;6.50;;;34.70;40.60;;;;;;5063170;28;20116;-57
2022/05/24 09:45:02;;;;;;;14.13;4.72;;;34.80;41.50;;;;;;5075404;28;20061;-57
2022/05/24 09:47:43;;;;;;;9.50;4.40;;;34.70;37.30;;;;;;5075069;28;20028;-57
2022/05/24 09:50:17;;;;;;;9.93;4.43;;;34.90;37.70;;;;;;5074074;28;20477;-57
2022/05/24 09:53:04;;;;;;;18.35;5.85;;;35.30;36.80;;;;;;5072417;28;20025;-57
2022/05/24 09:55:37;;;;;;;12.77;5.68;;;34.90;39.40;;;;;;5068965;28;20045;-57
2022/05/24 09:58:26;;;;;;;17.15;5.78;;;34.50;37.70;;;;;;5069241;28;20143;-57
2022/05/24 10:01:03;;;;;;;17.80;6.20;;;34.80;41.60;;;;;;5060196;28;20039;-57
2022/05/24 10:03:35;;;;;;;13.27;5.60;;;35.30;37.20;;;;;;5056067;28;20020;-57
2022/05/24 10:06:17;;;;;;;20.55;6.88;;;35.20;35.20;;;;;;5070360;28;20024;-57
2022/05/24 10:09:03;;;;;;;15.23;6.55;;;35.00;38.60;;;;;;5067320;28;20056;-57
2022/05/24 10:11:50;;;;;;;27.45;6.85;;;34.60;38.60;;;;;;5066496;28;20120;-57
2022/05/24 10:14:51;;;;;;;15.93;6.47;;;34.50;38.40;;;;;;5067805;28;20485;-57
2022/05/24 10:17:36;;;;;;;34.58;8.10;;;34.50;38.10;;;;;;5066365;28;20037;-57
2022/05/24 10:20:51;;;;;;;15.68;5.82;;;33.90;39.40;;;;;;5068609;28;20020;-57
2022/05/24 10:23:32;;;;;;;13.45;6.10;;;34.20;40.20;;;;;;5072181;28;20044;-57
2022/05/24 10:26:19;;;;;;;13.60;5.97;;;34.40;40.70;;;;;;5072035;28;20024;-57
2022/05/24 10:29:09;;;;;;;18.00;6.63;;;34.50;37.90;;;;;;5070889;28;20016;-57
2022/05/24 10:31:55;;;;;;;23.52;6.57;;;34.60;38.30;;;;;;5063842;28;20025;-58
2022/05/24 10:40:41;;;;;;;16.65;5.75;;;34.90;36.40;;;;;;5078655;28;20484;-57
2022/05/24 10:43:18;;;;;;;21.08;5.82;;;35.20;36.20;;;;;;5077000;28;20107;-57
2022/05/24 10:45:51;;;;;;;26.23;6.40;;;35.50;39.60;;;;;;5074692;28;20068;-57
2022/05/24 10:48:29;;;;;;;36.53;8.57;;;35.30;37.10;;;;;;5076456;28;20052;-58
2022/05/24 10:51:04;;;;;;;24.58;6.53;;;35.90;37.10;;;;;;5065453;28;20546;-57
2022/05/24 10:53:45;;;;;;;14.63;5.85;;;36.00;37.80;;;;;;5057734;28;20033;-57
2022/05/24 10:56:48;;;;;;;16.45;5.78;;;35.60;36.80;;;;;;5067916;28;20398;-57
2022/05/24 10:59:53;;;;;;;25.13;6.70;;;34.80;36.50;;;;;;5055893;28;20051;-57
2022/05/24 11:02:48;;;;;;;17.73;5.82;;;34.10;37.00;;;;;;5073672;28;20032;-57
2022/05/24 11:05:54;;;;;;;21.23;5.78;;;33.60;39.20;;;;;;5070440;28;20027;-57
2022/05/24 11:08:41;;;;;;;33.13;8.35;;;33.30;41.80;;;;;;5058060;28;20068;-57
2022/05/24 11:11:32;;;;;;;26.88;6.50;;;33.30;39.50;;;;;;5087474;28;20043;-57
2022/05/24 11:14:13;;;;;;;19.02;6.32;;;33.50;39.70;;;;;;5084789;28;20029;-57
2022/05/24 11:16:48;;;;;;;9.65;4.45;;;33.90;38.00;;;;;;5073195;28;20028;-57
2022/05/24 11:19:16;;;;;;;13.88;5.15;;;34.00;36.60;;;;;;5056183;28;20035;-57
2022/05/24 11:22:09;;;;;;;15.15;5.55;;;34.20;36.90;;;;;;5058848;28;20482;-57
2022/05/24 11:25:01;;;;;;;8.85;3.95;;;34.30;36.70;;;;;;5059643;28;20107;-57
2022/05/24 11:27:30;;;;;;;15.70;4.95;;;33.70;36.60;;;;;;5065615;28;20032;-57
2022/05/24 11:30:16;;;;;;;17.73;5.00;;;32.80;37.50;;;;;;5064728;28;20096;-57
2022/05/24 11:32:49;;;;;;;10.27;4.32;;;33.20;38.80;;;;;;5049946;28;20071;-57
2022/05/24 11:35:18;;;;;;;10.63;4.50;;;33.10;37.30;;;;;;5062771;28;20103;-57
2022/05/24 11:37:52;;;;;;;8.82;4.30;;;33.50;38.60;;;;;;5060058;28;20479;-57
2022/05/24 11:40:30;;;;;;;17.05;5.40;;;33.30;40.50;;;;;;5062073;28;20024;-57
2022/05/24 11:42:59;;;;;;;13.60;5.00;;;33.20;39.40;;;;;;5071415;28;20163;-57
2022/05/24 11:45:34;;;;;;;14.68;5.20;;;32.40;37.80;;;;;;5067234;28;20035;-57
2022/05/24 11:48:06;;;;;;;15.20;4.70;;;32.40;38.00;;;;;;5061922;28;20048;-57
2022/05/24 11:50:32;;;;;;;14.93;5.25;;;32.40;42.90;;;;;;5061970;28;20029;-57
2022/05/24 11:53:17;;;;;;;15.93;4.22;;;32.30;39.50;;;;;;5064191;28;20025;-57
2022/05/24 11:55:44;;;;;;;12.60;4.80;;;32.20;40.40;;;;;;5060483;28;20530;-57
2022/05/24 11:58:19;;;;;;;11.80;4.60;;;31.80;46.80;;;;;;5059524;28;20112;-57
2022/05/24 12:01:03;;;;;;;15.98;5.60;;;31.60;49.40;;;;;;5067282;28;20067;-57
2022/05/24 12:09:21;;;;;;;7.30;4.45;;;31.00;55.50;;;;;;5063716;28;20382;-57
2022/05/24 12:11:48;;;;;;;12.68;5.38;;;31.00;58.20;;;;;;5053737;28;20474;-57
2022/05/24 12:14:33;;;;;;;10.85;4.93;;;30.90;62.30;;;;;;5070568;28;20056;-57
2022/05/24 12:17:02;;;;;;;13.55;5.22;;;30.80;57.20;;;;;;5069578;28;20032;-57
2022/05/24 12:19:42;;;;;;;9.80;5.13;;;30.60;58.10;;;;;;5069586;28;20028;-57
2022/05/24 12:22:20;;;;;;;15.73;5.10;;;30.60;68.20;;;;;;5074739;28;20386;-57
2022/05/24 12:24:58;;;;;;;18.00;5.78;;;30.60;67.40;;;;;;5077179;28;20028;-57
2022/05/24 12:27:34;;;;;;;19.25;6.88;;;30.50;57.90;;;;;;5059646;28;20032;-57
2022/05/24 12:30:16;;;;;;;22.75;6.93;;;30.80;56.20;;;;;;5069686;28;20031;-57
2022/05/24 12:32:44;;;;;;;17.88;5.70;;;31.00;59.90;;;;;;5068550;28;20107;-57
2022/05/24 12:35:13;;;;;;;20.88;6.35;;;31.30;52.70;;;;;;5064950;28;20115;-57
2022/05/24 12:37:50;;;;;;;21.40;5.68;;;31.40;53.00;;;;;;5069767;28;20198;-57
2022/05/24 12:40:21;;;;;;;23.27;6.63;;;31.50;58.40;;;;;;5056846;28;20060;-57
2022/05/24 12:42:49;;;;;;;64.75;11.45;;;31.60;52.50;;;;;;5056721;28;20429;-57
2022/05/24 12:45:24;;;;;;;15.73;5.72;;;31.60;60.90;;;;;;5061656;28;20024;-57
2022/05/24 12:47:52;;;;;;;17.75;5.90;;;32.00;51.90;;;;;;5064219;28;20025;-57
2022/05/24 12:50:25;;;;;;;19.08;5.85;;;32.20;48.80;;;;;;5064346;28;20017;-57
2022/05/24 12:53:00;;;;;;;15.80;5.40;;;32.40;47.60;;;;;;5066967;28;20036;-57
2022/05/24 12:58:33;;;;;;;40.97;9.18;;;32.40;50.40;;;;;;5064618;28;20494;-57
2022/05/24 13:01:16;;;;;;;13.20;5.45;;;32.50;56.50;;;;;;5065792;28;20024;-57
2022/05/24 13:04:12;;;;;;;14.10;5.30;;;32.60;50.90;;;;;;5069507;28;20047;-57
2022/05/24 13:07:34;;;;;;;17.40;6.03;;;32.70;49.20;;;;;;5069119;28;20494;-57
2022/05/24 13:10:02;;;;;;;18.45;6.25;;;32.70;49.40;;;;;;5050870;28;20551;-57
2022/05/24 13:12:28;;;;;;;14.65;5.30;;;32.70;45.30;;;;;;5058051;28;20058;-57
2022/05/24 13:15:02;;;;;;;17.65;5.80;;;32.70;50.10;;;;;;5058494;28;20036;-55
2022/05/24 13:17:37;;;;;;;46.20;9.73;;;32.20;54.20;;;;;;5068468;28;20025;-55
2022/05/24 13:20:08;;;;;;;29.15;7.47;;;32.10;59.80;;;;;;5062974;28;20032;-55
2022/05/24 13:22:46;;;;;;;19.35;5.82;;;32.30;52.10;;;;;;5065508;28;20159;-55
2022/05/24 13:25:17;;;;;;;21.63;6.28;;;32.20;53.70;;;;;;5061518;28;20060;-55
2022/05/24 13:28:03;;;;;;;20.45;6.75;;;32.20;56.10;;;;;;5057167;28;20437;-55
2022/05/24 13:33:36;;;;;;;;;;;32.40;49.80;;;;;;5056748;28;20045;-55
2022/05/24 13:36:24;;;;;;;33.67;8.13;;;32.60;47.10;;;;;;5056152;28;19912;-55
2022/05/24 13:39:01;;;;;;;24.85;6.38;;;32.60;44.50;;;;;;5055988;28;20380;-55
2022/05/24 13:41:45;;;;;;;17.80;6.55;;;32.50;46.50;;;;;;5055896;28;20378;-55
2022/05/24 13:44:31;;;;;;;16.10;5.78;;;32.50;46.40;;;;;;5056141;28;20040;-55
2022/05/24 13:47:33;;;;;;;35.28;10.15;;;32.70;45.50;;;;;;5055621;28;20270;-56
2022/05/24 13:50:33;;;;;;;15.27;4.82;;;32.60;42.80;;;;;;5056013;28;20107;-57